首页
METAR-TAF:

METAR-TAF

机场 :

图森, 亞利桑那州, 美国

纬度: 32-07-53N, 经度: 110-57-19W, 海拔: 805米

当前天气观测

该预报发布于15分钟前的22:53 UTC
风速12节,风向西,有时为17节阵风
温度 41°C
湿度 7%
气压 1009 hPa
能見度: 16.1公里
天空无云

METAR: KTUS 152253Z 26012G17KT 10SM CLR 41/M01 A2979 RMK AO2 SLP030 T04111011

时间: 16:08 (23:08 UTC)

预报

该预报发布于5小时和31分钟前的17:37 UTC
预报有效从15日的 18点(UTC)到 16日的 18点(UTC)
风速6节,风向西转西南
能見度: 10公里
天空无云
从 15日的 2000点(UTC)
风速9节,风向西北
能見度: 10公里
天空无云
从 16日的 0500点(UTC)
风速5节,风向西转西南
能見度: 10公里
天空无云
从 16日的 0800点(UTC)
风速7节,风向南转南东
能見度: 10公里
天空无云

TAF: KTUS 151737Z 1518/1618 25006KT P6SM SKC FM152000 31009KT P6SM SKC FM160500 24005KT P6SM SKC FM160800 15007KT P6SM SKC

超过4000个机场的气象观测和天气预报(METAR&TAF报告)。

可查询的气象台以黄色和红色小点在地图上表示。

将鼠标移到小点上方,可查看气象台名称。

然后点击查看天气观测和预报。

如需切换地图:点击带黑十字的绿色按钮放大地图;点击带横线的绿色按钮缩小地图;或者点击绿色箭头查看邻近地区的地图。


METAR-TAF: